sensor_id;sensor_type;location;lat;lon;timestamp;P1;durP1;ratioP1;P2;durP2;ratioP2
17852;SDS011;9052;53.494;14.376;2023-07-20T00:01:32;6.80;;;1.53;;
17852;SDS011;9052;53.494;14.376;2023-07-20T00:03:59;2.13;;;1.93;;
17852;SDS011;9052;53.494;14.376;2023-07-20T00:06:26;5.03;;;1.80;;
17852;SDS011;9052;53.494;14.376;2023-07-20T00:08:54;2.07;;;1.97;;
17852;SDS011;9052;53.494;14.376;2023-07-20T00:11:21;4.00;;;2.40;;
17852;SDS011;9052;53.494;14.376;2023-07-20T00:13:49;3.10;;;1.87;;
17852;SDS011;9052;53.494;14.376;2023-07-20T00:16:16;1.60;;;1.50;;
17852;SDS011;9052;53.494;14.376;2023-07-20T00:18:43;1.00;;;1.00;;
17852;SDS011;9052;53.494;14.376;2023-07-20T00:21:10;1.53;;;1.40;;
17852;SDS011;9052;53.494;14.376;2023-07-20T00:23:37;1.33;;;1.23;;
17852;SDS011;9052;53.494;14.376;2023-07-20T00:26:04;1.73;;;1.50;;
17852;SDS011;9052;53.494;14.376;2023-07-20T00:28:31;1.90;;;1.80;;
17852;SDS011;9052;53.494;14.376;2023-07-20T00:31:00;3.50;;;1.80;;
17852;SDS011;9052;53.494;14.376;2023-07-20T00:33:28;2.00;;;1.37;;
17852;SDS011;9052;53.494;14.376;2023-07-20T00:35:55;1.30;;;1.30;;
17852;SDS011;9052;53.494;14.376;2023-07-20T00:38:21;4.60;;;2.03;;
17852;SDS011;9052;53.494;14.376;2023-07-20T00:40:48;1.70;;;1.60;;
17852;SDS011;9052;53.494;14.376;2023-07-20T00:43:15;1.50;;;1.40;;
17852;SDS011;9052;53.494;14.376;2023-07-20T00:45:42;2.57;;;2.20;;
17852;SDS011;9052;53.494;14.376;2023-07-20T00:48:11;13.33;;;2.00;;
17852;SDS011;9052;53.494;14.376;2023-07-20T00:50:37;2.70;;;1.40;;
17852;SDS011;9052;53.494;14.376;2023-07-20T00:53:06;2.20;;;2.00;;
17852;SDS011;9052;53.494;14.376;2023-07-20T00:55:34;2.13;;;1.90;;
17852;SDS011;9052;53.494;14.376;2023-07-20T00:58:01;2.40;;;2.20;;
17852;SDS011;9052;53.494;14.376;2023-07-20T01:00:28;3.10;;;1.70;;
17852;SDS011;9052;53.494;14.376;2023-07-20T01:02:54;2.60;;;2.40;;
17852;SDS011;9052;53.494;14.376;2023-07-20T01:05:23;2.07;;;1.97;;
17852;SDS011;9052;53.494;14.376;2023-07-20T01:07:55;2.20;;;2.10;;
17852;SDS011;9052;53.494;14.376;2023-07-20T01:10:25;3.07;;;2.03;;
17852;SDS011;9052;53.494;14.376;2023-07-20T01:12:55;3.73;;;2.10;;
17852;SDS011;9052;53.494;14.376;2023-07-20T01:15:23;2.00;;;1.90;;
17852;SDS011;9052;53.494;14.376;2023-07-20T01:17:50;2.10;;;2.00;;
17852;SDS011;9052;53.494;14.376;2023-07-20T01:20:18;1.90;;;1.80;;
17852;SDS011;9052;53.494;14.376;2023-07-20T01:23:00;2.00;;;1.90;;
17852;SDS011;9052;53.494;14.376;2023-07-20T01:28:57;2.60;;;2.40;;
17852;SDS011;9052;53.494;14.376;2023-07-20T01:31:32;3.30;;;2.13;;
17852;SDS011;9052;53.494;14.376;2023-07-20T01:34:01;3.93;;;2.30;;
17852;SDS011;9052;53.494;14.376;2023-07-20T01:36:30;2.37;;;2.17;;
17852;SDS011;9052;53.494;14.376;2023-07-20T01:38:58;2.77;;;2.27;;
17852;SDS011;9052;53.494;14.376;2023-07-20T01:41:25;2.53;;;2.33;;
17852;SDS011;9052;53.494;14.376;2023-07-20T01:43:52;2.10;;;2.00;;
17852;SDS011;9052;53.494;14.376;2023-07-20T01:46:19;2.40;;;2.10;;
17852;SDS011;9052;53.494;14.376;2023-07-20T01:48:47;3.00;;;2.67;;
17852;SDS011;9052;53.494;14.376;2023-07-20T01:51:15;2.50;;;2.40;;
17852;SDS011;9052;53.494;14.376;2023-07-20T01:53:43;2.43;;;2.33;;
17852;SDS011;9052;53.494;14.376;2023-07-20T01:56:10;3.23;;;3.03;;
17852;SDS011;9052;53.494;14.376;2023-07-20T01:58:37;2.50;;;2.30;;
17852;SDS011;9052;53.494;14.376;2023-07-20T02:01:04;4.13;;;2.80;;
17852;SDS011;9052;53.494;14.376;2023-07-20T02:03:31;3.67;;;2.37;;
17852;SDS011;9052;53.494;14.376;2023-07-20T02:05:59;2.83;;;2.63;;
17852;SDS011;9052;53.494;14.376;2023-07-20T02:08:26;3.23;;;2.93;;
17852;SDS011;9052;53.494;14.376;2023-07-20T02:10:53;2.87;;;2.70;;
17852;SDS011;9052;53.494;14.376;2023-07-20T02:13:20;2.30;;;2.20;;
17852;SDS011;9052;53.494;14.376;2023-07-20T02:15:47;2.97;;;2.67;;
17852;SDS011;9052;53.494;14.376;2023-07-20T02:18:14;9.53;;;3.27;;
17852;SDS011;9052;53.494;14.376;2023-07-20T02:20:41;4.50;;;2.70;;
17852;SDS011;9052;53.494;14.376;2023-07-20T02:23:09;3.80;;;2.53;;
17852;SDS011;9052;53.494;14.376;2023-07-20T02:25:36;2.97;;;2.77;;
17852;SDS011;9052;53.494;14.376;2023-07-20T02:28:04;3.20;;;2.03;;
17852;SDS011;9052;53.494;14.376;2023-07-20T02:30:33;3.10;;;2.13;;
17852;SDS011;9052;53.494;14.376;2023-07-20T02:33:00;3.50;;;3.20;;
17852;SDS011;9052;53.494;14.376;2023-07-20T02:35:27;2.57;;;2.37;;
17852;SDS011;9052;53.494;14.376;2023-07-20T02:37:54;5.53;;;3.00;;
17852;SDS011;9052;53.494;14.376;2023-07-20T02:40:22;3.17;;;2.87;;
17852;SDS011;9052;53.494;14.376;2023-07-20T02:42:49;5.23;;;3.00;;
17852;SDS011;9052;53.494;14.376;2023-07-20T02:45:16;2.40;;;2.20;;
17852;SDS011;9052;53.494;14.376;2023-07-20T02:47:44;2.63;;;2.40;;
17852;SDS011;9052;53.494;14.376;2023-07-20T02:50:11;3.70;;;2.77;;
17852;SDS011;9052;53.494;14.376;2023-07-20T02:52:39;3.17;;;2.97;;
17852;SDS011;9052;53.494;14.376;2023-07-20T02:55:06;4.90;;;2.90;;
17852;SDS011;9052;53.494;14.376;2023-07-20T02:57:35;3.93;;;2.77;;
17852;SDS011;9052;53.494;14.376;2023-07-20T03:00:02;2.77;;;2.57;;
17852;SDS011;9052;53.494;14.376;2023-07-20T03:02:31;8.10;;;3.07;;
17852;SDS011;9052;53.494;14.376;2023-07-20T03:04:58;4.13;;;2.30;;
17852;SDS011;9052;53.494;14.376;2023-07-20T03:07:26;3.40;;;2.30;;
17852;SDS011;9052;53.494;14.376;2023-07-20T03:09:54;3.33;;;3.03;;
17852;SDS011;9052;53.494;14.376;2023-07-20T03:12:21;4.00;;;2.70;;
17852;SDS011;9052;53.494;14.376;2023-07-20T03:14:50;3.27;;;2.97;;
17852;SDS011;9052;53.494;14.376;2023-07-20T03:17:19;2.83;;;1.93;;
17852;SDS011;9052;53.494;14.376;2023-07-20T03:19:46;2.33;;;2.23;;
17852;SDS011;9052;53.494;14.376;2023-07-20T03:22:13;5.13;;;2.27;;
17852;SDS011;9052;53.494;14.376;2023-07-20T03:24:40;2.80;;;2.10;;
17852;SDS011;9052;53.494;14.376;2023-07-20T03:27:07;2.70;;;2.50;;
17852;SDS011;9052;53.494;14.376;2023-07-20T03:29:34;2.43;;;2.23;;
17852;SDS011;9052;53.494;14.376;2023-07-20T03:32:02;9.93;;;2.43;;
17852;SDS011;9052;53.494;14.376;2023-07-20T03:34:29;2.53;;;2.13;;
17852;SDS011;9052;53.494;14.376;2023-07-20T03:36:56;2.20;;;2.00;;
17852;SDS011;9052;53.494;14.376;2023-07-20T03:39:24;2.77;;;2.57;;
17852;SDS011;9052;53.494;14.376;2023-07-20T03:41:51;7.50;;;2.47;;
17852;SDS011;9052;53.494;14.376;2023-07-20T03:44:18;6.40;;;2.90;;
17852;SDS011;9052;53.494;14.376;2023-07-20T03:46:45;2.97;;;2.77;;
17852;SDS011;9052;53.494;14.376;2023-07-20T03:49:13;3.30;;;2.40;;
17852;SDS011;9052;53.494;14.376;2023-07-20T03:51:40;3.73;;;3.13;;
17852;SDS011;9052;53.494;14.376;2023-07-20T03:54:07;6.50;;;2.40;;
17852;SDS011;9052;53.494;14.376;2023-07-20T03:56:34;1.93;;;1.83;;
17852;SDS011;9052;53.494;14.376;2023-07-20T03:59:01;3.10;;;2.00;;
17852;SDS011;9052;53.494;14.376;2023-07-20T04:01:28;4.83;;;1.97;;
17852;SDS011;9052;53.494;14.376;2023-07-20T04:03:55;2.90;;;2.27;;
17852;SDS011;9052;53.494;14.376;2023-07-20T04:06:24;2.30;;;1.87;;
17852;SDS011;9052;53.494;14.376;2023-07-20T04:08:51;2.10;;;1.63;;
17852;SDS011;9052;53.494;14.376;2023-07-20T04:11:18;2.20;;;2.00;;
17852;SDS011;9052;53.494;14.376;2023-07-20T04:13:45;1.70;;;1.60;;
17852;SDS011;9052;53.494;14.376;2023-07-20T04:16:12;2.17;;;1.70;;
17852;SDS011;9052;53.494;14.376;2023-07-20T04:18:39;2.10;;;1.33;;
17852;SDS011;9052;53.494;14.376;2023-07-20T04:21:07;2.23;;;1.60;;
17852;SDS011;9052;53.494;14.376;2023-07-20T04:23:36;1.30;;;1.20;;
17852;SDS011;9052;53.494;14.376;2023-07-20T04:26:03;2.07;;;1.47;;
17852;SDS011;9052;53.494;14.376;2023-07-20T04:28:32;4.80;;;2.10;;
17852;SDS011;9052;53.494;14.376;2023-07-20T04:31:09;5.30;;;1.53;;
17852;SDS011;9052;53.494;14.376;2023-07-20T04:33:36;5.43;;;1.47;;
17852;SDS011;9052;53.494;14.376;2023-07-20T04:36:03;1.97;;;1.30;;
17852;SDS011;9052;53.494;14.376;2023-07-20T04:38:30;3.43;;;1.73;;
17852;SDS011;9052;53.494;14.376;2023-07-20T04:40:58;2.27;;;1.40;;
17852;SDS011;9052;53.494;14.376;2023-07-20T04:43:25;1.40;;;1.30;;
17852;SDS011;9052;53.494;14.376;2023-07-20T04:45:52;2.00;;;1.20;;
17852;SDS011;9052;53.494;14.376;2023-07-20T04:48:19;3.97;;;1.00;;
17852;SDS011;9052;53.494;14.376;2023-07-20T04:50:46;1.33;;;1.23;;
17852;SDS011;9052;53.494;14.376;2023-07-20T04:53:13;2.13;;;1.30;;
17852;SDS011;9052;53.494;14.376;2023-07-20T04:55:40;1.83;;;1.07;;
17852;SDS011;9052;53.494;14.376;2023-07-20T04:58:17;1.67;;;1.33;;
17852;SDS011;9052;53.494;14.376;2023-07-20T05:00:44;1.43;;;1.00;;
17852;SDS011;9052;53.494;14.376;2023-07-20T05:03:20;1.53;;;1.37;;
17852;SDS011;9052;53.494;14.376;2023-07-20T05:05:47;1.47;;;1.00;;
17852;SDS011;9052;53.494;14.376;2023-07-20T05:08:14;4.40;;;1.00;;
17852;SDS011;9052;53.494;14.376;2023-07-20T05:10:41;3.30;;;1.03;;
17852;SDS011;9052;53.494;14.376;2023-07-20T05:13:08;2.00;;;1.13;;
17852;SDS011;9052;53.494;14.376;2023-07-20T05:15:36;1.20;;;1.10;;
17852;SDS011;9052;53.494;14.376;2023-07-20T05:18:03;8.00;;;1.67;;
17852;SDS011;9052;53.494;14.376;2023-07-20T05:20:30;4.70;;;1.23;;
17852;SDS011;9052;53.494;14.376;2023-07-20T05:22:58;1.03;;;0.90;;
17852;SDS011;9052;53.494;14.376;2023-07-20T05:25:26;1.50;;;1.00;;
17852;SDS011;9052;53.494;14.376;2023-07-20T05:27:53;1.57;;;1.20;;
17852;SDS011;9052;53.494;14.376;2023-07-20T05:30:20;1.60;;;1.10;;
17852;SDS011;9052;53.494;14.376;2023-07-20T05:32:49;0.77;;;0.77;;
17852;SDS011;9052;53.494;14.376;2023-07-20T05:35:17;2.70;;;1.60;;
17852;SDS011;9052;53.494;14.376;2023-07-20T05:37:44;1.63;;;1.10;;
17852;SDS011;9052;53.494;14.376;2023-07-20T05:40:11;0.80;;;0.80;;
17852;SDS011;9052;53.494;14.376;2023-07-20T05:42:39;0.93;;;0.83;;
17852;SDS011;9052;53.494;14.376;2023-07-20T05:45:07;1.07;;;0.97;;
17852;SDS011;9052;53.494;14.376;2023-07-20T05:47:34;1.00;;;0.90;;
17852;SDS011;9052;53.494;14.376;2023-07-20T05:50:02;1.33;;;1.23;;
17852;SDS011;9052;53.494;14.376;2023-07-20T05:52:29;1.20;;;0.70;;
17852;SDS011;9052;53.494;14.376;2023-07-20T05:54:56;2.57;;;1.10;;
17852;SDS011;9052;53.494;14.376;2023-07-20T05:57:23;2.30;;;1.00;;
17852;SDS011;9052;53.494;14.376;2023-07-20T05:59:50;2.70;;;1.10;;
17852;SDS011;9052;53.494;14.376;2023-07-20T06:02:17;1.33;;;0.80;;
17852;SDS011;9052;53.494;14.376;2023-07-20T06:04:44;1.27;;;0.90;;
17852;SDS011;9052;53.494;14.376;2023-07-20T06:07:12;1.40;;;1.23;;
17852;SDS011;9052;53.494;14.376;2023-07-20T06:09:39;0.80;;;0.70;;
17852;SDS011;9052;53.494;14.376;2023-07-20T06:12:07;1.23;;;0.90;;
17852;SDS011;9052;53.494;14.376;2023-07-20T06:14:34;1.43;;;0.60;;
17852;SDS011;9052;53.494;14.376;2023-07-20T06:17:01;9.10;;;0.80;;
17852;SDS011;9052;53.494;14.376;2023-07-20T06:19:28;7.50;;;1.20;;
17852;SDS011;9052;53.494;14.376;2023-07-20T06:21:55;1.00;;;0.87;;
17852;SDS011;9052;53.494;14.376;2023-07-20T06:24:24;1.10;;;0.73;;
17852;SDS011;9052;53.494;14.376;2023-07-20T06:26:50;0.97;;;0.60;;
17852;SDS011;9052;53.494;14.376;2023-07-20T06:29:17;2.13;;;0.97;;
17852;SDS011;9052;53.494;14.376;2023-07-20T06:31:44;2.77;;;1.10;;
17852;SDS011;9052;53.494;14.376;2023-07-20T06:34:11;2.40;;;1.10;;
17852;SDS011;9052;53.494;14.376;2023-07-20T06:36:38;1.20;;;0.77;;
17852;SDS011;9052;53.494;14.376;2023-07-20T06:39:05;0.90;;;0.50;;
17852;SDS011;9052;53.494;14.376;2023-07-20T06:41:33;2.17;;;0.70;;
17852;SDS011;9052;53.494;14.376;2023-07-20T06:44:00;1.83;;;0.80;;
17852;SDS011;9052;53.494;14.376;2023-07-20T06:46:27;1.13;;;0.60;;
17852;SDS011;9052;53.494;14.376;2023-07-20T06:48:54;3.47;;;1.47;;
17852;SDS011;9052;53.494;14.376;2023-07-20T06:51:22;0.80;;;0.60;;
17852;SDS011;9052;53.494;14.376;2023-07-20T06:53:49;0.63;;;0.50;;
17852;SDS011;9052;53.494;14.376;2023-07-20T06:56:15;2.57;;;0.87;;
17852;SDS011;9052;53.494;14.376;2023-07-20T06:58:44;2.00;;;0.93;;
17852;SDS011;9052;53.494;14.376;2023-07-20T07:01:11;0.70;;;0.63;;
17852;SDS011;9052;53.494;14.376;2023-07-20T07:03:38;2.20;;;0.90;;
17852;SDS011;9052;53.494;14.376;2023-07-20T07:06:05;11.67;;;1.27;;
17852;SDS011;9052;53.494;14.376;2023-07-20T07:08:32;2.07;;;0.83;;
17852;SDS011;9052;53.494;14.376;2023-07-20T07:10:59;1.10;;;1.00;;
17852;SDS011;9052;53.494;14.376;2023-07-20T07:13:26;1.73;;;0.93;;
17852;SDS011;9052;53.494;14.376;2023-07-20T07:15:54;1.00;;;0.87;;
17852;SDS011;9052;53.494;14.376;2023-07-20T07:18:21;2.70;;;1.10;;
17852;SDS011;9052;53.494;14.376;2023-07-20T07:20:51;1.10;;;0.80;;
17852;SDS011;9052;53.494;14.376;2023-07-20T07:23:18;0.93;;;0.60;;
17852;SDS011;9052;53.494;14.376;2023-07-20T07:25:45;0.90;;;0.70;;
17852;SDS011;9052;53.494;14.376;2023-07-20T07:28:13;1.03;;;0.90;;
17852;SDS011;9052;53.494;14.376;2023-07-20T07:30:40;2.80;;;1.10;;
17852;SDS011;9052;53.494;14.376;2023-07-20T07:33:08;6.00;;;0.93;;
17852;SDS011;9052;53.494;14.376;2023-07-20T07:35:36;3.30;;;1.17;;
17852;SDS011;9052;53.494;14.376;2023-07-20T07:38:03;3.20;;;0.80;;
17852;SDS011;9052;53.494;14.376;2023-07-20T07:40:30;1.87;;;1.23;;
17852;SDS011;9052;53.494;14.376;2023-07-20T07:42:57;0.70;;;0.70;;
17852;SDS011;9052;53.494;14.376;2023-07-20T07:45:24;0.80;;;0.77;;
17852;SDS011;9052;53.494;14.376;2023-07-20T07:47:51;3.00;;;0.77;;
17852;SDS011;9052;53.494;14.376;2023-07-20T07:50:19;1.00;;;0.90;;
17852;SDS011;9052;53.494;14.376;2023-07-20T07:52:46;1.30;;;1.20;;
17852;SDS011;9052;53.494;14.376;2023-07-20T07:55:13;1.03;;;0.70;;
17852;SDS011;9052;53.494;14.376;2023-07-20T07:57:41;5.33;;;0.70;;
17852;SDS011;9052;53.494;14.376;2023-07-20T08:00:09;1.10;;;0.70;;
17852;SDS011;9052;53.494;14.376;2023-07-20T08:02:39;5.50;;;0.67;;
17852;SDS011;9052;53.494;14.376;2023-07-20T08:05:07;1.87;;;1.00;;
17852;SDS011;9052;53.494;14.376;2023-07-20T08:07:36;1.27;;;0.90;;
17852;SDS011;9052;53.494;14.376;2023-07-20T08:10:03;1.03;;;0.80;;
17852;SDS011;9052;53.494;14.376;2023-07-20T08:12:30;1.63;;;0.80;;
17852;SDS011;9052;53.494;14.376;2023-07-20T08:14:57;12.87;;;0.93;;
17852;SDS011;9052;53.494;14.376;2023-07-20T08:17:24;2.30;;;0.90;;
17852;SDS011;9052;53.494;14.376;2023-07-20T08:19:53;3.33;;;0.93;;
17852;SDS011;9052;53.494;14.376;2023-07-20T08:22:37;3.17;;;0.70;;
17852;SDS011;9052;53.494;14.376;2023-07-20T08:25:30;1.30;;;1.03;;
17852;SDS011;9052;53.494;14.376;2023-07-20T08:28:30;1.70;;;0.80;;
17852;SDS011;9052;53.494;14.376;2023-07-20T08:30:57;1.27;;;0.60;;
17852;SDS011;9052;53.494;14.376;2023-07-20T08:33:24;1.90;;;0.60;;
17852;SDS011;9052;53.494;14.376;2023-07-20T08:35:54;0.70;;;0.50;;
17852;SDS011;9052;53.494;14.376;2023-07-20T08:38:23;1.97;;;0.70;;
17852;SDS011;9052;53.494;14.376;2023-07-20T08:40:51;2.93;;;0.60;;
17852;SDS011;9052;53.494;14.376;2023-07-20T08:43:19;2.53;;;0.73;;
17852;SDS011;9052;53.494;14.376;2023-07-20T08:45:45;1.17;;;0.70;;
17852;SDS011;9052;53.494;14.376;2023-07-20T08:48:13;1.00;;;0.40;;
17852;SDS011;9052;53.494;14.376;2023-07-20T08:50:40;1.63;;;0.60;;
17852;SDS011;9052;53.494;14.376;2023-07-20T08:53:08;1.07;;;0.80;;
17852;SDS011;9052;53.494;14.376;2023-07-20T08:55:36;1.47;;;0.80;;
17852;SDS011;9052;53.494;14.376;2023-07-20T08:58:03;0.60;;;0.50;;
17852;SDS011;9052;53.494;14.376;2023-07-20T09:00:32;1.70;;;0.60;;
17852;SDS011;9052;53.494;14.376;2023-07-20T09:02:59;0.80;;;0.50;;
17852;SDS011;9052;53.494;14.376;2023-07-20T09:05:28;8.67;;;0.90;;
17852;SDS011;9052;53.494;14.376;2023-07-20T09:07:55;1.20;;;0.70;;
17852;SDS011;9052;53.494;14.376;2023-07-20T09:10:22;0.70;;;0.70;;
17852;SDS011;9052;53.494;14.376;2023-07-20T09:12:51;0.93;;;0.57;;
17852;SDS011;9052;53.494;14.376;2023-07-20T09:15:18;1.27;;;0.67;;
17852;SDS011;9052;53.494;14.376;2023-07-20T09:17:46;2.40;;;0.80;;
17852;SDS011;9052;53.494;14.376;2023-07-20T09:20:14;5.53;;;0.90;;
17852;SDS011;9052;53.494;14.376;2023-07-20T09:22:42;0.80;;;0.50;;
17852;SDS011;9052;53.494;14.376;2023-07-20T09:25:10;1.73;;;0.90;;
17852;SDS011;9052;53.494;14.376;2023-07-20T09:27:38;1.27;;;0.60;;
17852;SDS011;9052;53.494;14.376;2023-07-20T09:30:07;0.77;;;0.77;;
17852;SDS011;9052;53.494;14.376;2023-07-20T09:32:39;1.80;;;1.00;;
17852;SDS011;9052;53.494;14.376;2023-07-20T09:35:12;0.70;;;0.70;;
17852;SDS011;9052;53.494;14.376;2023-07-20T09:37:42;2.10;;;1.03;;
17852;SDS011;9052;53.494;14.376;2023-07-20T09:40:14;2.83;;;0.70;;
17852;SDS011;9052;53.494;14.376;2023-07-20T09:42:42;1.00;;;0.80;;
17852;SDS011;9052;53.494;14.376;2023-07-20T09:45:11;1.00;;;0.77;;
17852;SDS011;9052;53.494;14.376;2023-07-20T09:47:38;2.60;;;1.47;;
17852;SDS011;9052;53.494;14.376;2023-07-20T09:50:06;5.23;;;1.67;;
17852;SDS011;9052;53.494;14.376;2023-07-20T09:52:37;10.63;;;2.00;;
17852;SDS011;9052;53.494;14.376;2023-07-20T09:55:06;1.90;;;1.80;;
17852;SDS011;9052;53.494;14.376;2023-07-20T09:57:34;3.07;;;2.10;;
17852;SDS011;9052;53.494;14.376;2023-07-20T10:00:02;3.00;;;1.70;;
17852;SDS011;9052;53.494;14.376;2023-07-20T10:02:34;3.60;;;2.00;;
17852;SDS011;9052;53.494;14.376;2023-07-20T10:05:07;4.83;;;1.90;;
17852;SDS011;9052;53.494;14.376;2023-07-20T10:07:35;1.70;;;1.60;;
17852;SDS011;9052;53.494;14.376;2023-07-20T10:10:03;14.70;;;1.67;;
17852;SDS011;9052;53.494;14.376;2023-07-20T10:12:32;5.40;;;1.63;;
17852;SDS011;9052;53.494;14.376;2023-07-20T10:15:04;2.90;;;1.50;;
17852;SDS011;9052;53.494;14.376;2023-07-20T10:17:40;1.93;;;1.10;;
17852;SDS011;9052;53.494;14.376;2023-07-20T10:20:15;1.40;;;1.00;;
17852;SDS011;9052;53.494;14.376;2023-07-20T10:22:44;1.00;;;0.90;;
17852;SDS011;9052;53.494;14.376;2023-07-20T10:25:12;2.23;;;0.90;;
17852;SDS011;9052;53.494;14.376;2023-07-20T10:27:39;1.03;;;0.90;;
17852;SDS011;9052;53.494;14.376;2023-07-20T10:30:06;1.60;;;0.70;;
17852;SDS011;9052;53.494;14.376;2023-07-20T10:32:34;2.60;;;0.70;;
17852;SDS011;9052;53.494;14.376;2023-07-20T10:35:11;3.20;;;1.10;;
17852;SDS011;9052;53.494;14.376;2023-07-20T10:37:46;1.20;;;0.70;;
17852;SDS011;9052;53.494;14.376;2023-07-20T10:40:26;0.73;;;0.67;;
17852;SDS011;9052;53.494;14.376;2023-07-20T10:42:59;2.90;;;0.83;;
17852;SDS011;9052;53.494;14.376;2023-07-20T10:45:36;2.10;;;0.90;;
17852;SDS011;9052;53.494;14.376;2023-07-20T10:48:06;1.43;;;0.70;;
17852;SDS011;9052;53.494;14.376;2023-07-20T10:50:37;0.60;;;0.50;;
17852;SDS011;9052;53.494;14.376;2023-07-20T10:53:04;1.43;;;0.60;;
17852;SDS011;9052;53.494;14.376;2023-07-20T10:55:31;0.57;;;0.40;;
17852;SDS011;9052;53.494;14.376;2023-07-20T10:58:08;10.30;;;0.50;;
17852;SDS011;9052;53.494;14.376;2023-07-20T11:00:36;1.00;;;0.60;;
17852;SDS011;9052;53.494;14.376;2023-07-20T11:03:04;1.87;;;0.50;;
17852;SDS011;9052;53.494;14.376;2023-07-20T11:05:31;1.10;;;0.47;;
17852;SDS011;9052;53.494;14.376;2023-07-20T11:08:00;3.40;;;0.50;;
17852;SDS011;9052;53.494;14.376;2023-07-20T11:10:27;0.70;;;0.50;;
17852;SDS011;9052;53.494;14.376;2023-07-20T11:15:46;1.80;;;0.40;;
17852;SDS011;9052;53.494;14.376;2023-07-20T11:18:13;0.70;;;0.50;;
17852;SDS011;9052;53.494;14.376;2023-07-20T11:20:41;2.53;;;0.83;;
17852;SDS011;9052;53.494;14.376;2023-07-20T11:23:10;1.20;;;0.63;;
17852;SDS011;9052;53.494;14.376;2023-07-20T11:25:38;0.70;;;0.50;;
17852;SDS011;9052;53.494;14.376;2023-07-20T11:28:08;11.93;;;1.10;;
17852;SDS011;9052;53.494;14.376;2023-07-20T11:30:36;0.60;;;0.50;;
17852;SDS011;9052;53.494;14.376;2023-07-20T11:33:08;2.40;;;0.60;;
17852;SDS011;9052;53.494;14.376;2023-07-20T11:35:35;4.33;;;0.70;;
17852;SDS011;9052;53.494;14.376;2023-07-20T11:38:03;0.70;;;0.50;;
17852;SDS011;9052;53.494;14.376;2023-07-20T11:40:33;0.60;;;0.47;;
17852;SDS011;9052;53.494;14.376;2023-07-20T11:43:01;1.23;;;0.53;;
17852;SDS011;9052;53.494;14.376;2023-07-20T11:45:28;1.13;;;0.60;;
17852;SDS011;9052;53.494;14.376;2023-07-20T11:47:58;0.70;;;0.50;;
17852;SDS011;9052;53.494;14.376;2023-07-20T11:50:25;3.13;;;0.80;;
17852;SDS011;9052;53.494;14.376;2023-07-20T11:52:52;1.67;;;0.80;;
17852;SDS011;9052;53.494;14.376;2023-07-20T11:55:19;0.70;;;0.60;;
17852;SDS011;9052;53.494;14.376;2023-07-20T12:00:30;1.00;;;0.60;;
17852;SDS011;9052;53.494;14.376;2023-07-20T12:02:57;9.87;;;0.83;;
17852;SDS011;9052;53.494;14.376;2023-07-20T12:05:24;3.07;;;0.50;;
17852;SDS011;9052;53.494;14.376;2023-07-20T12:07:52;1.10;;;0.50;;
17852;SDS011;9052;53.494;14.376;2023-07-20T12:10:23;4.30;;;0.83;;
17852;SDS011;9052;53.494;14.376;2023-07-20T12:12:51;1.57;;;0.60;;
17852;SDS011;9052;53.494;14.376;2023-07-20T12:15:22;1.63;;;0.50;;
17852;SDS011;9052;53.494;14.376;2023-07-20T12:17:49;1.10;;;0.57;;
17852;SDS011;9052;53.494;14.376;2023-07-20T12:20:27;0.60;;;0.50;;
17852;SDS011;9052;53.494;14.376;2023-07-20T12:22:58;2.70;;;0.67;;
17852;SDS011;9052;53.494;14.376;2023-07-20T12:25:33;7.23;;;0.70;;
17852;SDS011;9052;53.494;14.376;2023-07-20T12:28:04;7.13;;;0.87;;
17852;SDS011;9052;53.494;14.376;2023-07-20T12:30:33;4.90;;;1.00;;
17852;SDS011;9052;53.494;14.376;2023-07-20T12:33:01;1.47;;;0.60;;
17852;SDS011;9052;53.494;14.376;2023-07-20T12:35:29;1.80;;;0.73;;
17852;SDS011;9052;53.494;14.376;2023-07-20T12:37:59;2.30;;;0.60;;
17852;SDS011;9052;53.494;14.376;2023-07-20T12:40:35;1.00;;;0.60;;
17852;SDS011;9052;53.494;14.376;2023-07-20T12:43:02;0.80;;;0.50;;
17852;SDS011;9052;53.494;14.376;2023-07-20T12:45:29;1.43;;;0.70;;
17852;SDS011;9052;53.494;14.376;2023-07-20T12:47:58;1.20;;;0.60;;
17852;SDS011;9052;53.494;14.376;2023-07-20T12:50:26;1.93;;;0.60;;
17852;SDS011;9052;53.494;14.376;2023-07-20T12:52:53;1.73;;;0.67;;
17852;SDS011;9052;53.494;14.376;2023-07-20T12:55:21;3.70;;;0.50;;
17852;SDS011;9052;53.494;14.376;2023-07-20T12:57:47;1.70;;;0.87;;
17852;SDS011;9052;53.494;14.376;2023-07-20T13:00:15;1.73;;;0.50;;
17852;SDS011;9052;53.494;14.376;2023-07-20T13:02:42;0.80;;;0.60;;
17852;SDS011;9052;53.494;14.376;2023-07-20T13:05:11;1.87;;;0.50;;
17852;SDS011;9052;53.494;14.376;2023-07-20T13:07:38;0.70;;;0.60;;
17852;SDS011;9052;53.494;14.376;2023-07-20T13:10:05;6.13;;;0.70;;
17852;SDS011;9052;53.494;14.376;2023-07-20T13:12:33;4.70;;;0.73;;
17852;SDS011;9052;53.494;14.376;2023-07-20T13:15:00;3.70;;;0.80;;
17852;SDS011;9052;53.494;14.376;2023-07-20T13:17:30;0.60;;;0.60;;
17852;SDS011;9052;53.494;14.376;2023-07-20T13:19:57;1.90;;;0.83;;
17852;SDS011;9052;53.494;14.376;2023-07-20T13:22:26;2.47;;;0.80;;
17852;SDS011;9052;53.494;14.376;2023-07-20T13:24:53;1.10;;;0.70;;
17852;SDS011;9052;53.494;14.376;2023-07-20T13:27:20;1.30;;;0.50;;
17852;SDS011;9052;53.494;14.376;2023-07-20T13:29:47;0.60;;;0.40;;
17852;SDS011;9052;53.494;14.376;2023-07-20T13:32:14;0.90;;;0.80;;
17852;SDS011;9052;53.494;14.376;2023-07-20T13:34:43;1.70;;;0.50;;
17852;SDS011;9052;53.494;14.376;2023-07-20T13:37:10;3.27;;;1.00;;
17852;SDS011;9052;53.494;14.376;2023-07-20T13:39:39;2.57;;;1.03;;
17852;SDS011;9052;53.494;14.376;2023-07-20T13:42:06;3.27;;;0.90;;
17852;SDS011;9052;53.494;14.376;2023-07-20T13:44:35;1.50;;;1.07;;
17852;SDS011;9052;53.494;14.376;2023-07-20T13:47:03;1.20;;;0.63;;
17852;SDS011;9052;53.494;14.376;2023-07-20T13:49:31;1.10;;;0.70;;
17852;SDS011;9052;53.494;14.376;2023-07-20T13:51:58;1.00;;;0.80;;
17852;SDS011;9052;53.494;14.376;2023-07-20T13:54:27;2.37;;;0.90;;
17852;SDS011;9052;53.494;14.376;2023-07-20T13:56:55;2.60;;;1.33;;
17852;SDS011;9052;53.494;14.376;2023-07-20T13:59:22;2.33;;;1.33;;
17852;SDS011;9052;53.494;14.376;2023-07-20T14:01:50;7.87;;;1.07;;
17852;SDS011;9052;53.494;14.376;2023-07-20T14:04:17;1.60;;;1.00;;
17852;SDS011;9052;53.494;14.376;2023-07-20T14:06:44;2.43;;;1.07;;
17852;SDS011;9052;53.494;14.376;2023-07-20T14:09:12;9.80;;;0.93;;
17852;SDS011;9052;53.494;14.376;2023-07-20T14:11:39;1.13;;;0.80;;
17852;SDS011;9052;53.494;14.376;2023-07-20T14:14:07;1.83;;;0.90;;
17852;SDS011;9052;53.494;14.376;2023-07-20T14:16:34;1.57;;;0.90;;
17852;SDS011;9052;53.494;14.376;2023-07-20T14:19:01;5.33;;;1.40;;
17852;SDS011;9052;53.494;14.376;2023-07-20T14:21:30;0.70;;;0.63;;
17852;SDS011;9052;53.494;14.376;2023-07-20T14:23:57;2.40;;;1.50;;
17852;SDS011;9052;53.494;14.376;2023-07-20T14:26:24;6.03;;;1.20;;
17852;SDS011;9052;53.494;14.376;2023-07-20T14:28:50;1.40;;;0.80;;
17852;SDS011;9052;53.494;14.376;2023-07-20T14:31:19;4.50;;;0.80;;
17852;SDS011;9052;53.494;14.376;2023-07-20T14:33:46;1.30;;;1.10;;
17852;SDS011;9052;53.494;14.376;2023-07-20T14:36:13;2.80;;;1.47;;
17852;SDS011;9052;53.494;14.376;2023-07-20T14:38:40;3.93;;;1.30;;
17852;SDS011;9052;53.494;14.376;2023-07-20T14:41:08;3.03;;;0.70;;
17852;SDS011;9052;53.494;14.376;2023-07-20T14:43:35;1.00;;;0.90;;
17852;SDS011;9052;53.494;14.376;2023-07-20T14:46:02;0.93;;;0.83;;
17852;SDS011;9052;53.494;14.376;2023-07-20T14:48:30;5.73;;;1.30;;
17852;SDS011;9052;53.494;14.376;2023-07-20T14:50:57;1.33;;;1.03;;
17852;SDS011;9052;53.494;14.376;2023-07-20T14:53:24;1.83;;;1.07;;
17852;SDS011;9052;53.494;14.376;2023-07-20T14:55:57;7.03;;;1.40;;
17852;SDS011;9052;53.494;14.376;2023-07-20T14:58:25;1.27;;;1.07;;
17852;SDS011;9052;53.494;14.376;2023-07-20T15:00:52;1.57;;;1.40;;
17852;SDS011;9052;53.494;14.376;2023-07-20T15:03:19;5.93;;;1.20;;